首页
METAR-TAF:

METAR-TAF

机场 :

青島流亭國際機場

青岛, 中华人民共和国

纬度: 36-04N, 经度: 120-20E, 海拔: 77米

当前天气观测

该预报发布于27分钟前的04:00 UTC
风速4节,风向西北,在西东北之间变化
温度 11°C
湿度 40%
气压 1023 hPa
能見度: 8000

METAR: ZSQD 180400Z 32002MPS 270V040 8000 NSC 11/M02 Q1023 NOSIG

时间: 12:27 (04:27 UTC)

预报

该预报发布于7小时和18分钟前的21:09 UTC
预报有效从18日的 00点(UTC)到 18日的 24点(UTC)
风速6节,风向
能見度: 5000
轻雾
成为
从 18日的 04点(UTC)到 18日的 05点(UTC)
风速10节,风向
成为
从 18日的 13点(UTC)到 18日的 14点(UTC)
风速10节,风向北转西北

TAF: ZSQD 172109Z 1800/1824 36003MPS 5000 BR NSC TX10/1806Z TN00/1821Z BECMG 1804/1805 19005MPS BECMG 1813/1814 34005MPS

超过4000个机场的气象观测和天气预报(METAR&TAF报告)。

可查询的气象台以黄色和红色小点在地图上表示。

将鼠标移到小点上方,可查看气象台名称。

然后点击查看天气观测和预报。

如需切换地图:点击带黑十字的绿色按钮放大地图;点击带横线的绿色按钮缩小地图;或者点击绿色箭头查看邻近地区的地图。


METAR-TAF: